ELY1204 LLBG-LLER
Flight info
| Callsign | ELY1204 |
|---|---|
| Flight time | 0h 40m |
| Altitude | 20000 |
| Route | TOMAL J10 NURIT |
| Aircraft | B738/M-SDE2E3FGHIRWXY/LB1 |
Departure
| Time | 2026-04-24 08:38 |
|---|---|
| Airport | Ben Gurion International Airport (LLBG) |
Arrival
| Time | 2026-04-24 09:18 |
|---|---|
| Airport | Ramon International Airport (LLER) |
| Time | Latitude | Longitude | Altitude | Speed | Heading |
|---|---|---|---|---|---|
| 2026-04-24 08:02 | 32.00322 | 34.87626 | 119 ft | 0 kts | 316° |
| 2026-04-24 08:25 | 32.00283 | 34.87671 | 120 ft | 0 kts | 316° |
| 2026-04-24 08:25 | 32.00269 | 34.87686 | 119 ft | 0 kts | 316° |
| 2026-04-24 08:26 | 32.00257 | 34.87677 | 120 ft | 0 kts | 20° |
| 2026-04-24 08:26 | 32.00224 | 34.87662 | 119 ft | 0 kts | 20° |
| 2026-04-24 08:32 | 32.00252 | 34.87688 | 117 ft | 8 kts | 34° |
| 2026-04-24 08:32 | 32.00307 | 34.87719 | 118 ft | 12 kts | 30° |
| 2026-04-24 08:32 | 32.00400 | 34.87784 | 117 ft | 19 kts | 31° |
| 2026-04-24 08:32 | 32.00495 | 34.87853 | 119 ft | 14 kts | 33° |
| 2026-04-24 08:33 | 32.00577 | 34.87903 | 115 ft | 13 kts | 41° |
| 2026-04-24 08:33 | 32.00586 | 34.87912 | 116 ft | 0 kts | 38° |
| 2026-04-24 08:33 | 32.00609 | 34.87932 | 116 ft | 21 kts | 36° |
| 2026-04-24 08:34 | 32.00780 | 34.88057 | 118 ft | 27 kts | 33° |
| 2026-04-24 08:34 | 32.00948 | 34.88179 | 116 ft | 29 kts | 30° |
| 2026-04-24 08:34 | 32.01116 | 34.88297 | 116 ft | 26 kts | 32° |
| 2026-04-24 08:34 | 32.01262 | 34.88411 | 119 ft | 26 kts | 36° |
| 2026-04-24 08:35 | 32.01395 | 34.88564 | 115 ft | 28 kts | 54° |
| 2026-04-24 08:35 | 32.01460 | 34.88713 | 118 ft | 19 kts | 66° |
| 2026-04-24 08:35 | 32.01505 | 34.88908 | 116 ft | 31 kts | 79° |
| 2026-04-24 08:35 | 32.01532 | 34.89082 | 116 ft | 17 kts | 72° |
| 2026-04-24 08:36 | 32.01603 | 34.89154 | 116 ft | 12 kts | 0° |
| 2026-04-24 08:36 | 32.01720 | 34.89132 | 117 ft | 13 kts | 334° |
| 2026-04-24 08:36 | 32.01743 | 34.89077 | 118 ft | 0 kts | 256° |
| 2026-04-24 08:37 | 32.01735 | 34.89034 | 119 ft | 21 kts | 258° |
| 2026-04-24 08:37 | 32.01667 | 34.88567 | 120 ft | 93 kts | 261° |
| 2026-04-24 08:37 | 32.01512 | 34.87559 | 117 ft | 154 kts | 260° |
| 2026-04-24 08:38 | 32.01325 | 34.86191 | 481 ft | 174 kts | 264° |
| 2026-04-24 08:38 | 32.01116 | 34.84728 | 1190 ft | 184 kts | 263° |
| 2026-04-24 08:38 | 32.00875 | 34.83212 | 1950 ft | 191 kts | 257° |
| 2026-04-24 08:38 | 32.00173 | 34.81868 | 2701 ft | 198 kts | 211° |
| 2026-04-24 08:39 | 31.99329 | 34.81489 | 3225 ft | 199 kts | 188° |
| 2026-04-24 08:39 | 31.98130 | 34.81517 | 3856 ft | 207 kts | 165° |
| 2026-04-24 08:39 | 31.97784 | 34.81642 | 4002 ft | 209 kts | 155° |
| 2026-04-24 08:39 | 31.96859 | 34.82533 | 4554 ft | 210 kts | 117° |
| 2026-04-24 08:40 | 31.96463 | 34.84130 | 5143 ft | 217 kts | 98° |
| 2026-04-24 08:40 | 31.96200 | 34.86004 | 5348 ft | 245 kts | 99° |
| 2026-04-24 08:40 | 31.95893 | 34.88023 | 6005 ft | 252 kts | 100° |
| 2026-04-24 08:40 | 31.95595 | 34.89946 | 6893 ft | 249 kts | 102° |
| 2026-04-24 08:41 | 31.95278 | 34.91938 | 7736 ft | 249 kts | 102° |
| 2026-04-24 08:41 | 31.94955 | 34.93937 | 8467 ft | 251 kts | 103° |
| 2026-04-24 08:41 | 31.94595 | 34.95949 | 9286 ft | 252 kts | 110° |
| 2026-04-24 08:41 | 31.93946 | 34.97725 | 9969 ft | 253 kts | 119° |
| 2026-04-24 08:42 | 31.93179 | 34.99605 | 10655 ft | 256 kts | 119° |
| 2026-04-24 08:42 | 31.92679 | 35.00864 | 11110 ft | 257 kts | 119° |
| 2026-04-24 08:42 | 31.91922 | 35.02786 | 11747 ft | 261 kts | 118° |
| 2026-04-24 08:42 | 31.90902 | 35.05396 | 12641 ft | 267 kts | 119° |
| 2026-04-24 08:43 | 31.90376 | 35.06746 | 13081 ft | 270 kts | 118° |
| 2026-04-24 08:43 | 31.89589 | 35.08776 | 13743 ft | 274 kts | 118° |
| 2026-04-24 08:43 | 31.88797 | 35.10821 | 14361 ft | 276 kts | 118° |
| 2026-04-24 08:43 | 31.87995 | 35.12885 | 14972 ft | 279 kts | 118° |
| 2026-04-24 08:44 | 31.87194 | 35.14942 | 15581 ft | 281 kts | 119° |
| 2026-04-24 08:44 | 31.86375 | 35.17051 | 16207 ft | 284 kts | 119° |
| 2026-04-24 08:44 | 31.85546 | 35.19180 | 16829 ft | 287 kts | 119° |
| 2026-04-24 08:44 | 31.84698 | 35.21357 | 16993 ft | 301 kts | 119° |
| 2026-04-24 08:45 | 31.83791 | 35.23676 | 17034 ft | 322 kts | 118° |
| 2026-04-24 08:45 | 31.82821 | 35.26157 | 17032 ft | 344 kts | 118° |
| 2026-04-24 08:45 | 31.81794 | 35.28788 | 17027 ft | 365 kts | 118° |
| 2026-04-24 08:45 | 31.80711 | 35.31571 | 17024 ft | 384 kts | 118° |
| 2026-04-24 08:46 | 31.79574 | 35.34493 | 17021 ft | 401 kts | 117° |
| 2026-04-24 08:46 | 31.78385 | 35.37535 | 17020 ft | 417 kts | 118° |
| 2026-04-24 08:46 | 31.77152 | 35.40675 | 17013 ft | 429 kts | 119° |
| 2026-04-24 08:46 | 31.75490 | 35.43606 | 16995 ft | 433 kts | 138° |
| 2026-04-24 08:47 | 31.73065 | 35.45682 | 17028 ft | 433 kts | 156° |
| 2026-04-24 08:47 | 31.70248 | 35.46774 | 17018 ft | 423 kts | 173° |
| 2026-04-24 08:47 | 31.67382 | 35.46884 | 17010 ft | 414 kts | 188° |
| 2026-04-24 08:47 | 31.64552 | 35.46342 | 17014 ft | 410 kts | 194° |
| 2026-04-24 08:48 | 31.61762 | 35.45619 | 17002 ft | 410 kts | 194° |
| 2026-04-24 08:48 | 31.58967 | 35.44919 | 17000 ft | 411 kts | 194° |
| 2026-04-24 08:48 | 31.56157 | 35.44262 | 16996 ft | 412 kts | 193° |
| 2026-04-24 08:48 | 31.53341 | 35.43627 | 16988 ft | 413 kts | 193° |
| 2026-04-24 08:49 | 31.50521 | 35.43002 | 16995 ft | 413 kts | 193° |
| 2026-04-24 08:49 | 31.47694 | 35.42381 | 17005 ft | 414 kts | 193° |
| 2026-04-24 08:49 | 31.44861 | 35.41762 | 17007 ft | 414 kts | 193° |
| 2026-04-24 08:49 | 31.42025 | 35.41139 | 17005 ft | 414 kts | 193° |
| 2026-04-24 08:50 | 31.39191 | 35.40514 | 17006 ft | 414 kts | 193° |
| 2026-04-24 08:50 | 31.36354 | 35.39891 | 17003 ft | 414 kts | 193° |
| 2026-04-24 08:50 | 31.33558 | 35.39280 | 17001 ft | 414 kts | 192° |
| 2026-04-24 08:50 | 31.30658 | 35.38868 | 17002 ft | 415 kts | 187° |
| 2026-04-24 08:51 | 31.27816 | 35.38588 | 17001 ft | 415 kts | 187° |
| 2026-04-24 08:51 | 31.24938 | 35.38300 | 17003 ft | 415 kts | 187° |
| 2026-04-24 08:51 | 31.22060 | 35.37995 | 17002 ft | 415 kts | 187° |
| 2026-04-24 08:51 | 31.19180 | 35.37687 | 17002 ft | 415 kts | 187° |
| 2026-04-24 08:52 | 31.16308 | 35.37376 | 17007 ft | 415 kts | 187° |
| 2026-04-24 08:52 | 31.13431 | 35.37082 | 17002 ft | 415 kts | 187° |
| 2026-04-24 08:52 | 31.10560 | 35.36794 | 16998 ft | 415 kts | 187° |
| 2026-04-24 08:52 | 31.07671 | 35.36501 | 17002 ft | 415 kts | 187° |
| 2026-04-24 08:53 | 31.04795 | 35.36207 | 17004 ft | 415 kts | 187° |
| 2026-04-24 08:53 | 31.01923 | 35.35901 | 17004 ft | 415 kts | 187° |
| 2026-04-24 08:53 | 30.99085 | 35.35595 | 16998 ft | 415 kts | 187° |
| 2026-04-24 08:53 | 30.96202 | 35.35269 | 16999 ft | 414 kts | 189° |
| 2026-04-24 08:54 | 30.93390 | 35.34590 | 16998 ft | 412 kts | 198° |
| 2026-04-24 08:54 | 30.90721 | 35.33391 | 17001 ft | 411 kts | 205° |
| 2026-04-24 08:54 | 30.88100 | 35.32058 | 16981 ft | 411 kts | 205° |
| 2026-04-24 08:54 | 30.85894 | 35.30943 | 16990 ft | 411 kts | 205° |
| 2026-04-24 08:55 | 30.83261 | 35.29621 | 16994 ft | 411 kts | 205° |
| 2026-04-24 08:55 | 30.80629 | 35.28313 | 16997 ft | 412 kts | 204° |
| 2026-04-24 08:55 | 30.77987 | 35.27016 | 17000 ft | 412 kts | 204° |
| 2026-04-24 08:55 | 30.75339 | 35.25720 | 16997 ft | 412 kts | 204° |
| 2026-04-24 08:56 | 30.72699 | 35.24424 | 17007 ft | 412 kts | 204° |
| 2026-04-24 08:56 | 30.70050 | 35.23120 | 16996 ft | 412 kts | 204° |
| 2026-04-24 08:56 | 30.67447 | 35.21847 | 16994 ft | 412 kts | 204° |
| 2026-04-24 08:56 | 30.64802 | 35.20556 | 16990 ft | 412 kts | 204° |
| 2026-04-24 08:57 | 30.62164 | 35.19267 | 16985 ft | 411 kts | 204° |
| 2026-04-24 08:57 | 30.59493 | 35.17960 | 16989 ft | 411 kts | 204° |
| 2026-04-24 08:57 | 30.56855 | 35.16689 | 16991 ft | 411 kts | 202° |
| 2026-04-24 08:57 | 30.54111 | 35.15755 | 16988 ft | 413 kts | 192° |
| 2026-04-24 08:58 | 30.51307 | 35.15241 | 17000 ft | 413 kts | 190° |
| 2026-04-24 08:58 | 30.48463 | 35.14738 | 16988 ft | 413 kts | 190° |
| 2026-04-24 08:58 | 30.45616 | 35.14220 | 16983 ft | 413 kts | 191° |
| 2026-04-24 08:58 | 30.42773 | 35.13687 | 16989 ft | 414 kts | 191° |
| 2026-04-24 08:59 | 30.39949 | 35.13148 | 16973 ft | 406 kts | 191° |
| 2026-04-24 08:59 | 30.37190 | 35.12621 | 16520 ft | 397 kts | 191° |
| 2026-04-24 08:59 | 30.34481 | 35.12098 | 15993 ft | 392 kts | 191° |
| 2026-04-24 08:59 | 30.31802 | 35.11582 | 15402 ft | 388 kts | 191° |
| 2026-04-24 09:00 | 30.29151 | 35.11072 | 14804 ft | 385 kts | 191° |
| 2026-04-24 09:00 | 30.26515 | 35.10560 | 14221 ft | 382 kts | 191° |
| 2026-04-24 09:00 | 30.23887 | 35.10051 | 13456 ft | 384 kts | 191° |
| 2026-04-24 09:00 | 30.21289 | 35.09542 | 12799 ft | 383 kts | 191° |
| 2026-04-24 09:01 | 30.18706 | 35.09018 | 12564 ft | 371 kts | 191° |
| 2026-04-24 09:01 | 30.16194 | 35.08501 | 12147 ft | 366 kts | 191° |
| 2026-04-24 09:01 | 30.13677 | 35.07983 | 11426 ft | 368 kts | 191° |
| 2026-04-24 09:01 | 30.11178 | 35.07472 | 11112 ft | 358 kts | 191° |
| 2026-04-24 09:02 | 30.08772 | 35.06982 | 11013 ft | 343 kts | 191° |
| 2026-04-24 09:02 | 30.06478 | 35.06517 | 10922 ft | 325 kts | 191° |
| 2026-04-24 09:02 | 30.04307 | 35.06086 | 10767 ft | 307 kts | 190° |
| 2026-04-24 09:02 | 30.02250 | 35.05682 | 10661 ft | 293 kts | 190° |
| 2026-04-24 09:03 | 30.00278 | 35.05294 | 10593 ft | 282 kts | 190° |
| 2026-04-24 09:03 | 29.98380 | 35.04922 | 10492 ft | 273 kts | 190° |
| 2026-04-24 09:03 | 29.96543 | 35.04562 | 10291 ft | 269 kts | 190° |
| 2026-04-24 09:03 | 29.94764 | 35.04212 | 10042 ft | 268 kts | 189° |
| 2026-04-24 09:04 | 29.92931 | 35.03852 | 9786 ft | 266 kts | 189° |
| 2026-04-24 09:04 | 29.91177 | 35.03508 | 9566 ft | 263 kts | 189° |
| 2026-04-24 09:04 | 29.89392 | 35.03154 | 9417 ft | 257 kts | 191° |
| 2026-04-24 09:04 | 29.87669 | 35.02634 | 9206 ft | 255 kts | 196° |
| 2026-04-24 09:05 | 29.85982 | 35.02020 | 8914 ft | 255 kts | 197° |
| 2026-04-24 09:05 | 29.84294 | 35.01389 | 8659 ft | 254 kts | 197° |
| 2026-04-24 09:05 | 29.82611 | 35.00761 | 8340 ft | 254 kts | 197° |
| 2026-04-24 09:05 | 29.81582 | 35.00380 | 8152 ft | 255 kts | 197° |
| 2026-04-24 09:06 | 29.80118 | 34.99841 | 7891 ft | 255 kts | 197° |
| 2026-04-24 09:06 | 29.78620 | 34.99294 | 7673 ft | 253 kts | 197° |
| 2026-04-24 09:06 | 29.76933 | 34.98678 | 7445 ft | 252 kts | 197° |
| 2026-04-24 09:06 | 29.75304 | 34.98086 | 7298 ft | 247 kts | 197° |
| 2026-04-24 09:07 | 29.74133 | 34.97662 | 7081 ft | 247 kts | 197° |
| 2026-04-24 09:07 | 29.72479 | 34.97066 | 6760 ft | 249 kts | 196° |
| 2026-04-24 09:07 | 29.69159 | 34.95864 | 6107 ft | 252 kts | 195° |
| 2026-04-24 09:08 | 29.67497 | 34.95265 | 5905 ft | 249 kts | 195° |
| 2026-04-24 09:08 | 29.65834 | 34.94666 | 5574 ft | 251 kts | 196° |
| 2026-04-24 09:08 | 29.64165 | 34.94065 | 5350 ft | 251 kts | 195° |
| 2026-04-24 09:08 | 29.62500 | 34.93464 | 5175 ft | 248 kts | 196° |
| 2026-04-24 09:09 | 29.60879 | 34.92879 | 5129 ft | 240 kts | 196° |
| 2026-04-24 09:09 | 29.59892 | 34.92522 | 5088 ft | 236 kts | 195° |
| 2026-04-24 09:09 | 29.58496 | 34.92019 | 4981 ft | 232 kts | 196° |
| 2026-04-24 09:09 | 29.56960 | 34.91464 | 4754 ft | 232 kts | 195° |
| 2026-04-24 09:10 | 29.55431 | 34.90940 | 4512 ft | 234 kts | 195° |
| 2026-04-24 09:10 | 29.53919 | 34.90544 | 4247 ft | 233 kts | 176° |
| 2026-04-24 09:10 | 29.52497 | 34.91183 | 4143 ft | 214 kts | 134° |
| 2026-04-24 09:10 | 29.51772 | 34.92477 | 3987 ft | 201 kts | 103° |
| 2026-04-24 09:11 | 29.51716 | 34.93812 | 3647 ft | 196 kts | 72° |
| 2026-04-24 09:11 | 29.52288 | 34.95131 | 3378 ft | 186 kts | 42° |
| 2026-04-24 09:11 | 29.53181 | 34.95902 | 3357 ft | 194 kts | 26° |
| 2026-04-24 09:11 | 29.54053 | 34.96230 | 3156 ft | 192 kts | 11° |
| 2026-04-24 09:12 | 29.55288 | 34.96543 | 3012 ft | 176 kts | 13° |
| 2026-04-24 09:12 | 29.56443 | 34.96863 | 2812 ft | 169 kts | 13° |
| 2026-04-24 09:12 | 29.57226 | 34.97078 | 2747 ft | 166 kts | 13° |
| 2026-04-24 09:12 | 29.58335 | 34.97389 | 2595 ft | 155 kts | 14° |
| 2026-04-24 09:13 | 29.59343 | 34.97699 | 2444 ft | 147 kts | 16° |
| 2026-04-24 09:13 | 29.60321 | 34.97947 | 2324 ft | 144 kts | 7° |
| 2026-04-24 09:13 | 29.61210 | 34.98172 | 2177 ft | 142 kts | 10° |
| 2026-04-24 09:13 | 29.61620 | 34.98293 | 2139 ft | 143 kts | 11° |
| 2026-04-24 09:14 | 29.61748 | 34.98330 | 2130 ft | 143 kts | 12° |
| 2026-04-24 09:14 | 29.62035 | 34.98414 | 2119 ft | 143 kts | 12° |
| 2026-04-24 09:14 | 29.62931 | 34.98671 | 1967 ft | 148 kts | 11° |
| 2026-04-24 09:14 | 29.63515 | 34.98834 | 1848 ft | 146 kts | 12° |
| 2026-04-24 09:15 | 29.64376 | 34.99077 | 1688 ft | 144 kts | 12° |
| 2026-04-24 09:15 | 29.65176 | 34.99300 | 1485 ft | 148 kts | 11° |
| 2026-04-24 09:15 | 29.66145 | 34.99572 | 1321 ft | 150 kts | 11° |
| 2026-04-24 09:15 | 29.67162 | 34.99864 | 1094 ft | 150 kts | 12° |
| 2026-04-24 09:16 | 29.68096 | 35.00156 | 904 ft | 134 kts | 16° |
| 2026-04-24 09:16 | 29.68865 | 35.00343 | 759 ft | 139 kts | 12° |
| 2026-04-24 09:16 | 29.69797 | 35.00586 | 643 ft | 138 kts | 15° |
| 2026-04-24 09:16 | 29.70722 | 35.00845 | 421 ft | 138 kts | 15° |
| 2026-04-24 09:17 | 29.71590 | 35.01104 | 298 ft | 119 kts | 15° |
| 2026-04-24 09:17 | 29.72277 | 35.01294 | 297 ft | 82 kts | 15° |
| 2026-04-24 09:17 | 29.72290 | 35.01298 | 297 ft | 81 kts | 15° |
| 2026-04-24 09:18 | 29.72325 | 35.01309 | 300 ft | 74 kts | 15° |
| 2026-04-24 09:18 | 29.72428 | 35.01340 | 299 ft | 0 kts | 10° |
| 2026-04-24 09:18 | 29.72438 | 35.01342 | 298 ft | 3 kts | 12° |
| 2026-04-24 09:19 | 29.72447 | 35.01344 | 300 ft | 1 kts | 10° |
| 2026-04-24 09:19 | 29.72449 | 35.01345 | 300 ft | 0 kts | 11° |
| 2026-04-24 09:19 | 29.72453 | 35.01346 | 300 ft | 1 kts | 12° |
| 2026-04-24 09:19 | 29.72460 | 35.01347 | 297 ft | 2 kts | 14° |